Time;durP1;ratioP1;P1;durP2;ratioP2;P2;SDS_P1;SDS_P2;PMS_P1;PMS_P2;Temp;Humidity;BMP_temperature;BMP_pressure;BME280_temperature;BME280_humidity;BME280_pressure;Samples;Min_cycle;Max_cycle;Signal;HPM_P1;HPM_P2
2022/05/20 00:00:58;;;;;;;16.90;5.38;;;;;;;12.53;67.84;101253.88;5107394;28;20059;-67
2022/05/20 00:03:23;;;;;;;17.38;6.32;;;;;;;12.57;68.68;101261.59;5107525;28;20561;-67
2022/05/20 00:05:49;;;;;;;19.75;5.20;;;;;;;12.54;67.83;101252.94;5106983;28;20158;-67
2022/05/20 00:08:14;;;;;;;15.75;5.95;;;;;;;12.51;68.60;101254.00;5107294;28;20027;-67
2022/05/20 00:10:40;;;;;;;15.77;5.72;;;;;;;12.38;68.27;101230.94;5106323;28;20049;-67
2022/05/20 00:13:07;;;;;;;15.30;6.05;;;;;;;12.41;68.09;101252.22;5107249;28;20038;-67
2022/05/20 00:15:32;;;;;;;14.52;5.60;;;;;;;12.36;68.14;101251.72;5089208;28;20052;-67
2022/05/20 00:17:58;;;;;;;13.82;6.38;;;;;;;12.30;69.01;101253.06;5107593;28;20052;-67
2022/05/20 00:20:26;;;;;;;17.95;6.03;;;;;;;12.30;69.14;101246.81;5107303;28;20486;-67
2022/05/20 00:22:52;;;;;;;21.80;7.05;;;;;;;12.30;69.11;101260.25;5107085;28;20031;-67
2022/05/20 00:28:05;;;;;;;16.13;6.43;;;;;;;12.23;68.50;101254.53;5107218;28;20066;-67
2022/05/20 00:30:31;;;;;;;14.90;5.65;;;;;;;12.13;68.74;101250.00;5088861;28;20051;-67
2022/05/20 00:32:56;;;;;;;17.15;6.30;;;;;;;12.15;68.50;101253.44;5107549;28;20020;-67
2022/05/20 00:35:23;;;;;;;17.60;5.75;;;;;;;12.07;68.71;101256.72;5107233;28;20034;-67
2022/05/20 00:37:48;;;;;;;17.20;6.72;;;;;;;12.05;68.27;101255.97;5107183;28;20536;-67
2022/05/20 00:40:18;;;;;;;18.05;7.10;;;;;;;11.96;68.57;101245.94;5107122;28;20036;-67
2022/05/20 00:42:43;;;;;;;11.98;6.47;;;;;;;12.00;68.39;101257.31;5107142;28;20055;-67
2022/05/20 00:45:11;;;;;;;17.30;6.30;;;;;;;11.95;68.79;101262.19;5107919;28;20080;-67
2022/05/20 00:47:37;;;;;;;12.27;5.43;;;;;;;11.87;68.61;101264.66;5110853;28;20471;-67
2022/05/20 00:50:07;;;;;;;18.52;6.80;;;;;;;11.80;68.53;101260.72;5110541;28;20111;-67
2022/05/20 00:52:36;;;;;;;16.15;6.65;;;;;;;11.73;69.07;101254.97;5110688;28;20050;-67
2022/05/20 00:55:06;;;;;;;15.52;6.45;;;;;;;11.74;69.00;101269.25;5110396;28;20024;-67
2022/05/20 00:57:43;;;;;;;20.75;7.35;;;;;;;11.70;69.28;101262.41;5092181;28;20438;-67
2022/05/20 01:00:18;;;;;;;18.13;7.30;;;;;;;11.57;69.09;101249.88;5110224;28;20765;-67
2022/05/20 01:02:45;;;;;;;12.40;6.70;;;;;;;11.62;69.40;101256.75;5110629;28;20039;-67
2022/05/20 01:05:21;;;;;;;13.63;6.57;;;;;;;11.57;69.24;101252.56;5091625;28;20391;-67
2022/05/20 01:07:48;;;;;;;19.17;6.93;;;;;;;11.50;70.09;101248.66;5110509;28;20030;-67
2022/05/20 01:10:13;;;;;;;11.70;6.38;;;;;;;11.50;69.86;101247.78;5110196;28;20506;-67
2022/05/20 01:12:39;;;;;;;18.13;6.70;;;;;;;11.43;70.13;101236.69;5110452;28;20046;-67
2022/05/20 01:15:07;;;;;;;13.60;6.22;;;;;;;11.42;69.82;101243.00;5110113;28;20047;-68
2022/05/20 01:17:33;;;;;;;14.52;6.35;;;;;;;11.39;70.02;101239.72;5110446;28;20019;-67
2022/05/20 01:19:59;;;;;;;16.88;6.47;;;;;;;11.39;70.09;101245.09;5109908;28;20036;-67
2022/05/20 01:22:35;;;;;;;17.45;6.95;;;;;;;11.40;70.71;101239.59;5110172;28;20028;-67
2022/05/20 01:25:02;;;;;;;16.40;7.47;;;;;;;11.45;70.87;101253.50;5109956;28;20173;-67
2022/05/20 01:27:29;;;;;;;12.35;7.10;;;;;;;11.42;70.62;101253.75;5110518;28;20062;-67
2022/05/20 01:29:54;;;;;;;13.85;6.75;;;;;;;11.30;70.46;101233.22;5109898;28;20043;-67
2022/05/20 01:32:20;;;;;;;16.00;6.97;;;;;;;11.37;70.07;101247.88;5109932;28;20027;-67
2022/05/20 01:34:45;;;;;;;13.27;7.22;;;;;;;11.31;70.53;101237.59;5109876;28;20028;-68
2022/05/20 01:37:11;;;;;;;18.15;6.82;;;;;;;11.30;70.11;101252.00;5091252;28;20046;-67
2022/05/20 01:39:37;;;;;;;17.98;6.97;;;;;;;11.26;70.36;101249.69;5109966;28;20063;-67
2022/05/20 01:42:24;;;;;;;14.07;7.57;;;;;;;11.17;69.99;101232.44;5110018;28;20028;-67
2022/05/20 01:45:00;;;;;;;16.23;7.20;;;;;;;11.17;70.30;101248.53;5091153;28;20036;-67
2022/05/20 01:47:33;;;;;;;19.30;7.57;;;;;;;11.15;70.39;101244.25;5109689;28;20036;-67
2022/05/20 01:50:09;;;;;;;17.20;7.78;;;;;;;11.12;70.19;101258.75;5109724;28;20406;-67
2022/05/20 01:52:37;;;;;;;16.00;7.07;;;;;;;11.08;70.86;101254.59;5109540;28;20032;-67
2022/05/20 01:55:24;;;;;;;16.30;6.70;;;;;;;11.01;70.70;101242.63;5109814;28;20048;-67
2022/05/20 01:58:01;;;;;;;19.13;7.45;;;;;;;11.02;71.11;101247.00;5109677;28;20064;-67
2022/05/20 02:00:29;;;;;;;14.30;7.13;;;;;;;10.97;71.68;101241.09;5109584;28;20035;-68
2022/05/20 02:03:16;;;;;;;16.48;6.55;;;;;;;10.96;71.23;101243.91;5109314;28;20027;-67
2022/05/20 02:05:59;;;;;;;15.68;6.78;;;;;;;10.87;71.15;101232.03;5109268;28;20032;-67
2022/05/20 02:08:31;;;;;;;15.95;6.72;;;;;;;10.87;70.77;101234.72;5109340;28;20053;-67
2022/05/20 02:11:01;;;;;;;13.50;6.97;;;;;;;10.85;70.78;101235.81;5090531;28;20118;-67
2022/05/20 02:13:29;;;;;;;15.50;6.60;;;;;;;10.81;71.26;101237.84;5109165;28;20176;-66
2022/05/20 02:16:21;;;;;;;18.33;7.45;;;;;;;10.80;70.86;101236.16;5108970;28;20035;-67
2022/05/20 02:19:05;;;;;;;16.98;6.75;;;;;;;10.78;70.97;101230.06;5090614;28;20023;-67
2022/05/20 02:21:35;;;;;;;19.35;6.68;;;;;;;10.69;70.70;101222.69;5109265;28;20036;-66
2022/05/20 02:24:06;;;;;;;10.50;5.88;;;;;;;10.74;70.96;101225.03;5109077;28;20042;-66
2022/05/20 02:26:40;;;;;;;15.63;5.97;;;;;;;10.74;71.53;101225.88;5108862;28;20495;-66
2022/05/20 02:29:20;;;;;;;15.70;5.40;;;;;;;10.77;71.18;101227.50;5108689;28;20023;-66
2022/05/20 02:32:16;;;;;;;15.80;6.20;;;;;;;10.76;71.10;101232.00;5090527;28;20023;-67
2022/05/20 02:34:42;;;;;;;12.18;5.82;;;;;;;10.71;70.96;101217.19;5108855;28;20035;-66
2022/05/20 02:37:32;;;;;;;9.57;5.40;;;;;;;10.71;71.44;101207.31;5090202;28;20024;-67
2022/05/20 02:39:59;;;;;;;15.82;6.38;;;;;;;10.79;71.48;101229.06;5090225;28;20126;-66
2022/05/20 02:42:26;;;;;;;11.48;6.35;;;;;;;10.82;71.46;101218.13;5108525;28;20372;-66
2022/05/20 02:44:52;;;;;;;10.48;5.88;;;;;;;10.83;71.70;101206.41;5108438;28;20499;-66
2022/05/20 02:47:19;;;;;;;9.80;5.47;;;;;;;10.87;71.26;101215.94;5108149;28;20035;-66
2022/05/20 02:49:45;;;;;;;9.15;5.60;;;;;;;10.84;70.57;101202.75;5108294;28;20044;-67
2022/05/20 02:52:11;;;;;;;10.23;4.90;;;;;;;10.90;70.20;101202.28;5108108;28;20160;-66
2022/05/20 02:54:36;;;;;;;10.63;4.47;;;;;;;10.95;70.10;101202.81;5107810;28;20027;-66
2022/05/20 02:57:02;;;;;;;8.75;4.28;;;;;;;10.97;70.75;101200.00;5108598;28;20066;-66
2022/05/20 03:04:55;;;;;;;5.45;3.88;;;;;;;11.17;69.58;101199.34;5108286;28;20042;-67
2022/05/20 03:07:21;;;;;;;8.57;3.45;;;;;;;11.19;68.62;101200.09;5107875;28;20466;-67
2022/05/20 03:09:46;;;;;;;9.65;3.95;;;;;;;11.30;67.61;101209.03;5108008;28;20557;-67
2022/05/20 03:12:13;;;;;;;9.85;4.43;;;;;;;11.35;67.25;101205.97;5089629;28;20036;-67
2022/05/20 03:14:39;;;;;;;6.70;3.40;;;;;;;11.44;66.64;101197.22;5107976;28;20077;-67
2022/05/20 03:17:06;;;;;;;7.50;3.80;;;;;;;11.48;65.95;101202.22;5108087;28;20032;-67
2022/05/20 03:19:32;;;;;;;7.93;3.22;;;;;;;11.52;65.61;101201.00;5108133;28;20757;-66
2022/05/20 03:21:59;;;;;;;7.13;4.10;;;;;;;11.63;65.59;101212.78;5107828;28;20100;-66
2022/05/20 03:24:25;;;;;;;8.35;4.20;;;;;;;11.57;65.98;101198.84;5107973;28;20071;-66
2022/05/20 03:26:51;;;;;;;17.88;4.80;;;;;;;11.64;67.96;101196.53;5089410;28;20035;-66
2022/05/20 03:29:16;;;;;;;36.10;7.15;;;;;;;11.66;66.52;101205.34;5107737;28;20069;-66
2022/05/20 03:31:42;;;;;;;39.03;8.65;;;;;;;11.71;66.22;101216.63;5105543;28;20030;-67
2022/05/20 03:34:09;;;;;;;34.30;8.20;;;;;;;11.68;65.94;101208.78;5108090;28;20101;-67
2022/05/20 03:36:42;;;;;;;34.88;11.25;;;;;;;11.64;65.96;101201.91;5089811;28;20016;-67
2022/05/20 03:39:09;;;;;;;38.75;13.73;;;;;;;11.62;65.64;101211.94;5108039;28;20027;-67
2022/05/20 03:41:37;;;;;;;29.65;13.13;;;;;;;11.55;66.34;101206.16;5108095;28;20547;-67
2022/05/20 03:44:03;;;;;;;23.58;12.55;;;;;;;11.50;66.86;101194.94;5107814;28;20023;-67
2022/05/20 03:46:30;;;;;;;29.35;12.38;;;;;;;11.43;67.01;101172.22;5108098;28;20046;-67
2022/05/20 03:48:59;;;;;;;23.33;9.98;;;;;;;11.51;67.58;101182.31;5107563;28;20479;-67
2022/05/20 03:51:25;;;;;;;17.52;8.25;;;;;;;11.61;67.96;101193.22;5107930;28;20086;-68
2022/05/20 03:53:50;;;;;;;12.02;6.30;;;;;;;11.67;68.43;101192.78;5107941;28;20177;-67
2022/05/20 03:56:16;;;;;;;11.70;6.38;;;;;;;11.73;67.90;101187.78;5107441;28;20023;-67
2022/05/20 03:58:41;;;;;;;12.20;4.55;;;;;;;11.87;67.26;101194.75;5107686;28;20023;-67
2022/05/20 04:03:54;;;;;;;8.27;3.13;;;;;;;12.17;65.69;101198.53;5107760;28;20139;-67
2022/05/20 04:06:20;;;;;;;6.70;3.50;;;;;;;12.19;64.63;101175.03;5107813;28;20057;-67
2022/05/20 04:08:46;;;;;;;5.70;3.20;;;;;;;12.48;63.47;101189.69;5107634;28;20031;-67
2022/05/20 04:11:12;;;;;;;6.68;2.78;;;;;;;12.68;62.50;101206.88;5107487;28;20023;-67
2022/05/20 04:13:39;;;;;;;4.55;2.95;;;;;;;12.76;61.79;101181.03;5107978;28;20024;-67
2022/05/20 04:16:05;;;;;;;7.28;3.25;;;;;;;13.13;61.20;101203.09;5089205;28;20050;-67
2022/05/20 04:18:31;;;;;;;7.05;3.42;;;;;;;13.37;60.26;101201.00;5107784;28;20020;-67
2022/05/20 04:20:56;;;;;;;4.85;2.88;;;;;;;13.62;59.21;101206.00;5109898;28;20065;-67
2022/05/20 04:23:22;;;;;;;11.38;3.10;;;;;;;13.78;57.84;101184.81;5093174;28;20036;-67
2022/05/20 04:25:47;;;;;;;5.45;2.70;;;;;;;14.07;56.52;101188.50;5111633;28;20040;-67
2022/05/20 04:28:14;;;;;;;5.70;2.90;;;;;;;14.29;55.25;101187.47;5111471;28;20031;-67
2022/05/20 04:30:39;;;;;;;3.65;2.80;;;;;;;14.35;54.34;101182.34;5111879;28;20084;-67
2022/05/20 04:33:05;;;;;;;5.55;2.83;;;;;;;14.61;53.56;101193.53;5111140;28;20036;-67
2022/05/20 04:35:30;;;;;;;5.55;2.35;;;;;;;14.61;53.04;101183.56;5110825;28;20471;-67
2022/05/20 04:37:56;;;;;;;8.70;2.65;;;;;;;14.76;52.27;101189.41;5110513;28;20106;-67
2022/05/20 04:40:21;;;;;;;5.03;2.35;;;;;;;14.82;51.93;101186.16;5092422;28;20034;-67
2022/05/20 04:46:56;;;;;;;7.28;2.42;;;;;;;14.99;51.22;101190.88;5110647;28;20505;-67
2022/05/20 04:48:31;;;;;;;3.25;2.60;;;;;;;15.05;50.96;101199.25;5110202;28;20050;-67
2022/05/20 04:50:56;;;;;;;6.18;2.85;;;;;;;15.10;50.62;101186.19;5110399;28;20043;-67
2022/05/20 04:56:06;;;;;;;5.43;2.35;;;;;;;15.25;50.22;101194.72;5110383;28;20544;-67
2022/05/20 04:58:31;;;;;;;10.65;3.30;;;;;;;15.35;49.98;101203.66;5092131;28;20036;-67
2022/05/20 05:00:57;;;;;;;4.85;2.40;;;;;;;15.41;50.10;101185.03;5110007;28;20857;-66
2022/05/20 05:03:22;;;;;;;7.07;2.60;;;;;;;15.47;50.11;101179.06;5091798;28;20024;-68
2022/05/20 05:05:48;;;;;;;8.32;3.35;;;;;;;15.59;50.58;101177.91;5110417;28;20028;-67
2022/05/20 05:08:16;;;;;;;6.22;2.72;;;;;;;15.64;50.77;101162.06;5110236;28;20059;-68
2022/05/20 05:10:42;;;;;;;13.70;3.05;;;;;;;15.83;51.11;101174.69;5110331;28;20030;-67
2022/05/20 05:13:09;;;;;;;7.28;3.10;;;;;;;15.88;50.73;101165.16;5108848;28;20107;-68
2022/05/20 05:15:35;;;;;;;6.55;3.05;;;;;;;16.13;50.00;101176.28;5109698;28;20035;-67
2022/05/20 05:18:13;;;;;;;6.10;3.20;;;;;;;16.32;50.24;101179.78;5109727;28;20110;-68
2022/05/20 05:20:42;;;;;;;8.43;2.78;;;;;;;16.46;48.92;101173.88;5109697;28;20054;-68
2022/05/20 05:23:08;;;;;;;5.90;2.97;;;;;;;16.59;48.56;101163.53;5091189;28;20023;-67
2022/05/20 05:25:35;;;;;;;8.35;2.90;;;;;;;16.76;48.75;101165.41;5091163;28;20065;-67
2022/05/20 05:28:01;;;;;;;6.97;3.13;;;;;;;16.80;47.79;101149.69;5107375;28;20683;-67
2022/05/20 05:30:27;;;;;;;7.13;3.60;;;;;;;16.99;47.80;101173.94;5090943;28;20027;-68
2022/05/20 05:32:53;;;;;;;8.70;3.42;;;;;;;17.18;47.83;101187.31;5109482;28;20402;-68
2022/05/20 05:35:21;;;;;;;11.35;3.35;;;;;;;17.33;47.46;101185.75;5109637;28;20035;-68
2022/05/20 05:37:47;;;;;;;8.07;3.00;;;;;;;17.44;47.10;101166.53;5109671;28;20027;-68
2022/05/20 05:40:16;;;;;;;5.60;3.05;;;;;;;17.61;47.02;101171.09;5109581;28;20368;-68
2022/05/20 05:42:42;;;;;;;9.18;2.80;;;;;;;17.74;47.13;101168.81;5109798;28;20035;-68
2022/05/20 05:45:10;;;;;;;9.13;2.85;;;;;;;17.86;46.92;101171.09;5108967;28;20150;-68
2022/05/20 05:47:35;;;;;;;4.75;2.42;;;;;;;18.03;47.04;101175.59;5109268;28;20028;-68
2022/05/20 05:50:00;;;;;;;5.22;2.50;;;;;;;18.18;46.85;101173.13;5109375;28;20027;-68
2022/05/20 05:52:26;;;;;;;4.60;2.15;;;;;;;18.30;46.61;101171.81;5109710;28;20054;-68
2022/05/20 05:54:52;;;;;;;8.23;2.55;;;;;;;18.43;45.83;101161.38;5109053;28;20364;-68
2022/05/20 05:57:17;;;;;;;10.05;3.75;;;;;;;18.60;45.32;101171.28;5109247;28;20395;-68
2022/05/20 05:59:43;;;;;;;4.07;2.20;;;;;;;18.78;45.47;101157.56;5108179;28;20027;-68
2022/05/20 06:02:08;;;;;;;5.45;2.25;;;;;;;19.02;45.07;101168.50;5107136;28;20124;-69
2022/05/20 06:04:34;;;;;;;6.00;2.20;;;;;;;19.25;44.37;101170.34;5109518;28;20065;-69
2022/05/20 06:07:00;;;;;;;5.72;2.60;;;;;;;19.42;44.14;101169.38;5109056;28;20062;-69
2022/05/20 06:09:26;;;;;;;7.80;2.50;;;;;;;19.68;43.61;101177.34;5090814;28;20386;-68
2022/05/20 06:11:51;;;;;;;8.50;2.38;;;;;;;19.85;43.54;101163.53;5108925;28;20047;-69
2022/05/20 06:14:17;;;;;;;5.35;2.30;;;;;;;20.07;42.95;101179.16;5090620;28;20035;-69
2022/05/20 06:16:43;;;;;;;9.13;2.50;;;;;;;20.28;42.69;101184.00;5109417;28;20353;-69
2022/05/20 06:19:09;;;;;;;5.05;2.50;;;;;;;20.44;41.83;101188.56;5108116;28;20390;-69
2022/05/20 06:21:36;;;;;;;3.53;2.03;;;;;;;20.68;40.54;101197.47;5109066;28;20027;-69
2022/05/20 06:24:03;;;;;;;4.20;2.28;;;;;;;20.87;39.93;101194.31;5108696;28;20031;-69
2022/05/20 06:26:28;;;;;;;5.30;2.30;;;;;;;21.05;39.32;101186.72;5108490;28;20039;-69
2022/05/20 06:28:54;;;;;;;4.90;2.33;;;;;;;21.15;38.81;101183.75;5108816;28;20038;-69
2022/05/20 06:31:19;;;;;;;3.97;2.33;;;;;;;21.35;38.80;101176.78;5108558;28;20114;-69
2022/05/20 06:33:45;;;;;;;6.13;2.40;;;;;;;21.56;38.98;101180.50;5109045;28;20047;-69
2022/05/20 06:41:39;;;;;;;;;;;;;;;22.18;37.44;101183.81;5109632;28;20035;-70
2022/05/20 06:44:05;;;;;;;4.28;2.38;;;;;;;22.38;37.27;101175.88;5107615;28;20302;-69
2022/05/20 06:46:31;;;;;;;3.95;2.03;;;;;;;22.58;36.99;101180.63;5108459;28;20039;-70
2022/05/20 06:48:58;;;;;;;5.60;2.03;;;;;;;22.79;36.35;101183.38;5089798;28;20038;-70
2022/05/20 06:51:29;;;;;;;9.18;2.35;;;;;;;22.98;36.36;101182.75;5108391;28;20035;-70
2022/05/20 06:53:57;;;;;;;7.63;2.80;;;;;;;23.15;36.22;101180.63;5108621;28;20103;-70
2022/05/20 06:56:27;;;;;;;3.35;1.83;;;;;;;23.26;36.05;101181.00;5108395;28;20059;-70
2022/05/20 06:58:53;;;;;;;6.95;2.08;;;;;;;23.47;36.00;101185.63;5108425;28;20115;-70
2022/05/20 07:01:19;;;;;;;5.15;2.47;;;;;;;23.63;35.44;101168.91;5108114;28;20058;-70
2022/05/20 07:03:45;;;;;;;4.57;1.88;;;;;;;23.80;35.45;101173.03;5108535;28;20054;-70
2022/05/20 07:06:12;;;;;;;6.80;2.50;;;;;;;23.95;35.36;101165.56;5089556;28;20028;-70
2022/05/20 07:08:38;;;;;;;4.50;2.42;;;;;;;24.10;34.71;101149.88;5108222;28;20421;-70
2022/05/20 07:11:05;;;;;;;6.18;1.95;;;;;;;24.35;34.59;101145.59;5107993;28;20661;-70
2022/05/20 07:13:32;;;;;;;5.13;1.95;;;;;;;24.56;34.33;101148.19;5108205;28;20424;-71
2022/05/20 07:15:58;;;;;;;4.40;2.17;;;;;;;24.78;34.09;101160.75;5107949;28;20032;-70
2022/05/20 07:18:28;;;;;;;4.85;2.13;;;;;;;24.92;33.65;101153.44;5108092;28;20050;-69
2022/05/20 07:20:54;;;;;;;5.15;2.10;;;;;;;25.13;32.94;101156.00;5108041;28;20039;-69
2022/05/20 07:23:20;;;;;;;4.50;2.13;;;;;;;25.28;32.33;101151.16;5107787;28;20046;-69
2022/05/20 07:25:46;;;;;;;6.82;2.00;;;;;;;25.39;32.04;101151.41;5108177;28;20040;-69
2022/05/20 07:28:11;;;;;;;3.67;1.83;;;;;;;25.56;31.46;101149.06;5107699;28;20124;-71
2022/05/20 07:30:37;;;;;;;4.13;2.15;;;;;;;25.71;31.20;101142.31;5107879;28;20095;-70
2022/05/20 07:33:03;;;;;;;5.47;1.90;;;;;;;25.79;30.87;101130.28;5107899;28;20045;-70
2022/05/20 07:35:29;;;;;;;7.35;2.35;;;;;;;25.96;30.99;101145.25;5107838;28;20364;-70
2022/05/20 07:37:54;;;;;;;5.03;1.70;;;;;;;26.06;30.68;101142.94;5107950;28;20043;-69
2022/05/20 07:40:21;;;;;;;3.15;1.90;;;;;;;26.17;30.94;101156.00;5107652;28;20028;-69
2022/05/20 07:42:46;;;;;;;3.13;1.98;;;;;;;26.28;30.40;101138.84;5108153;28;20028;-70
2022/05/20 07:45:13;;;;;;;10.93;2.17;;;;;;;26.43;30.31;101144.91;5089135;28;20058;-69
2022/05/20 07:47:39;;;;;;;6.43;2.10;;;;;;;26.56;30.36;101141.28;5107497;28;20040;-71
2022/05/20 07:50:06;;;;;;;5.63;2.13;;;;;;;26.67;29.89;101144.22;5107429;28;20035;-69
2022/05/20 07:55:22;;;;;;;2.80;1.83;;;;;;;26.85;29.74;101122.31;5111288;28;20124;-69
2022/05/20 07:57:48;;;;;;;4.47;1.60;;;;;;;27.06;29.81;101132.97;5112014;28;20031;-70
2022/05/20 08:00:14;;;;;;;4.03;1.88;;;;;;;27.17;29.19;101129.50;5111374;28;20439;-70
2022/05/20 08:02:42;;;;;;;6.28;1.80;;;;;;;27.22;29.39;101118.66;5111766;28;20471;-70
2022/05/20 08:05:09;;;;;;;4.53;1.92;;;;;;;27.31;29.50;101124.78;5111522;28;20540;-70
2022/05/20 08:07:41;;;;;;;5.30;1.67;;;;;;;27.37;28.74;101119.19;5093358;28;20023;-71
2022/05/20 08:10:12;;;;;;;4.15;2.42;;;;;;;27.51;28.70;101123.56;5111617;28;20019;-70
2022/05/20 08:12:37;;;;;;;4.28;2.10;;;;;;;27.66;29.26;101124.03;5111566;28;20023;-71
2022/05/20 08:15:04;;;;;;;4.80;1.92;;;;;;;27.80;29.17;101117.34;5092792;28;20038;-70
2022/05/20 08:17:33;;;;;;;3.22;1.73;;;;;;;27.94;28.93;101116.16;5093179;28;20034;-69
2022/05/20 08:19:59;;;;;;;5.57;2.13;;;;;;;28.16;28.37;101117.41;5111258;28;20579;-70
2022/05/20 08:22:24;;;;;;;5.20;1.90;;;;;;;28.25;27.93;101118.75;5111803;28;20087;-70
2022/05/20 08:24:57;;;;;;;3.78;1.77;;;;;;;28.34;27.39;101116.56;5111764;28;20048;-70
2022/05/20 08:27:25;;;;;;;6.25;2.10;;;;;;;28.34;27.52;101109.09;5112132;28;20035;-70
2022/05/20 08:29:51;;;;;;;2.53;1.70;;;;;;;28.31;27.15;101089.41;5093690;28;20024;-70
2022/05/20 08:32:17;;;;;;;4.15;1.55;;;;;;;28.40;26.92;101110.94;5111153;28;20734;-69
2022/05/20 08:34:46;;;;;;;6.13;2.20;;;;;;;28.44;26.46;101111.34;5111355;28;20023;-70
2022/05/20 08:37:14;;;;;;;3.88;1.77;;;;;;;28.38;26.45;101102.03;5092637;28;20027;-71
2022/05/20 08:39:39;;;;;;;5.45;1.88;;;;;;;28.34;27.15;101094.47;5111268;28;20031;-71
2022/05/20 08:42:14;;;;;;;4.85;2.00;;;;;;;28.36;26.71;101115.25;5110842;28;20047;-71
2022/05/20 08:44:42;;;;;;;3.65;1.98;;;;;;;28.24;26.96;101095.00;5111195;28;20604;-68
2022/05/20 08:47:29;;;;;;;3.13;1.73;;;;;;;28.30;26.74;101105.13;5092321;28;20032;-70
2022/05/20 08:49:57;;;;;;;5.03;2.17;;;;;;;28.20;26.81;101091.03;5092563;28;20067;-70
2022/05/20 08:52:24;;;;;;;7.85;2.13;;;;;;;28.23;27.02;101109.03;5111209;28;20072;-70
2022/05/20 08:54:49;;;;;;;2.03;1.60;;;;;;;28.09;26.92;101093.72;5111303;28;20063;-70
2022/05/20 08:57:30;;;;;;;3.55;1.77;;;;;;;28.05;26.97;101098.84;5110629;28;20129;-70
2022/05/20 08:59:56;;;;;;;3.50;2.08;;;;;;;28.01;26.83;101097.63;5110680;28;20019;-70
2022/05/20 09:02:22;;;;;;;2.28;1.92;;;;;;;27.90;26.93;101098.38;5110636;28;20028;-71
2022/05/20 09:04:49;;;;;;;4.43;2.30;;;;;;;27.83;26.86;101088.47;5110589;28;20032;-70
2022/05/20 09:07:18;;;;;;;4.20;1.88;;;;;;;27.68;27.06;101072.28;5109610;28;20084;-70
2022/05/20 09:09:51;;;;;;;3.75;1.80;;;;;;;27.65;27.67;101085.66;5110657;28;20106;-70
2022/05/20 09:12:43;;;;;;;2.27;1.70;;;;;;;27.56;27.95;101092.53;5110622;28;20031;-70
2022/05/20 09:18:04;;;;;;;5.25;1.75;;;;;;;27.44;27.89;101088.84;5110302;28;20446;-70
2022/05/20 09:20:30;;;;;;;4.20;1.80;;;;;;;27.42;28.28;101072.53;5110434;28;20058;-70
2022/05/20 09:23:05;;;;;;;3.25;1.95;;;;;;;27.43;28.49;101076.97;5110528;28;20530;-70
2022/05/20 09:25:34;;;;;;;5.70;1.52;;;;;;;27.44;28.54;101061.28;5109952;28;20043;-70
2022/05/20 09:28:27;;;;;;;3.08;2.03;;;;;;;27.50;27.65;101061.22;5110109;28;20501;-69
2022/05/20 09:31:03;;;;;;;4.22;1.73;;;;;;;27.54;27.96;101053.34;5110524;28;20020;-71
2022/05/20 09:33:31;;;;;;;3.92;1.70;;;;;;;27.60;28.11;101056.00;5110058;28;20497;-71
2022/05/20 09:35:59;;;;;;;3.42;1.70;;;;;;;27.65;28.32;101056.19;5108043;28;20039;-69
2022/05/20 09:38:40;;;;;;;5.90;1.55;;;;;;;27.67;27.88;101045.78;5110310;28;20110;-69
2022/05/20 09:41:16;;;;;;;4.43;1.73;;;;;;;27.71;27.78;101038.75;5109907;28;20036;-68
2022/05/20 09:43:56;;;;;;;1.80;1.63;;;;;;;27.83;27.65;101036.88;5110049;28;20085;-69
2022/05/20 09:46:27;;;;;;;4.90;1.80;;;;;;;27.89;27.51;101024.97;5109826;28;20032;-69
2022/05/20 09:49:02;;;;;;;2.20;1.48;;;;;;;28.06;27.25;101033.47;5091820;28;20047;-69
2022/05/20 09:51:48;;;;;;;3.30;1.50;;;;;;;28.22;27.57;101035.63;5109893;28;20742;-69
2022/05/20 09:54:33;;;;;;;3.53;1.92;;;;;;;28.33;27.25;101027.38;5109427;28;20096;-69
2022/05/20 09:57:04;;;;;;;2.15;1.67;;;;;;;28.43;26.65;101024.06;5091280;28;20038;-69
2022/05/20 09:59:32;;;;;;;1.90;1.58;;;;;;;28.43;26.40;101011.09;5109538;28;20027;-69
2022/05/20 10:02:04;;;;;;;4.07;1.60;;;;;;;28.51;26.57;101013.56;5109690;28;20024;-69
2022/05/20 10:04:39;;;;;;;5.55;2.00;;;;;;;28.45;26.65;100994.34;5091246;28;20483;-69
2022/05/20 10:07:10;;;;;;;2.70;1.80;;;;;;;28.56;26.10;101003.75;5090797;28;20024;-69
2022/05/20 10:10:06;;;;;;;2.58;1.77;;;;;;;28.63;26.61;101001.72;5109584;28;20106;-69
2022/05/20 10:12:36;;;;;;;3.97;2.00;;;;;;;28.73;26.48;100994.56;5109616;28;20387;-69
2022/05/20 10:15:12;;;;;;;4.68;1.73;;;;;;;28.76;27.01;100990.47;5109223;28;20660;-69
2022/05/20 10:17:49;;;;;;;2.00;1.48;;;;;;;28.83;26.65;100985.69;5089908;28;20031;-69
2022/05/20 10:20:26;;;;;;;4.20;1.65;;;;;;;28.90;26.46;100983.66;5090581;28;20031;-69
2022/05/20 10:23:13;;;;;;;3.05;1.67;;;;;;;29.03;26.49;100980.66;5109297;28;20036;-70
2022/05/20 10:25:59;;;;;;;2.92;1.48;;;;;;;29.09;26.37;100969.53;5109189;28;20043;-70
2022/05/20 10:34:35;;;;;;;4.10;1.40;;;;;;;29.23;26.16;100961.84;5109520;28;20651;-70
2022/05/20 10:37:20;;;;;;;3.67;1.70;;;;;;;29.25;26.11;100965.22;5108867;28;20126;-70
2022/05/20 10:40:11;;;;;;;5.13;2.15;;;;;;;29.28;26.21;100954.53;5109164;28;20479;-70
2022/05/20 10:42:53;;;;;;;4.75;1.85;;;;;;;29.33;25.93;100953.78;5108922;28;20393;-70
2022/05/20 10:49:11;;;;;;;3.78;1.60;;;;;;;29.42;26.03;100938.50;5109618;28;20058;-70
2022/05/20 10:52:01;;;;;;;4.10;1.60;;;;;;;29.48;26.46;100937.53;5009614;28;20029;-70
2022/05/20 10:54:45;;;;;;;5.30;1.90;;;;;;;29.53;26.00;100932.13;5026463;28;20030;-70
2022/05/20 10:57:29;;;;;;;9.70;2.10;;;;;;;29.52;25.52;100922.13;5088650;28;20028;-71
2022/05/20 11:00:03;;;;;;;3.97;1.58;;;;;;;29.48;25.74;100927.34;5110039;28;20023;-70
2022/05/20 11:02:48;;;;;;;6.60;1.92;;;;;;;29.46;26.12;100912.91;5110340;28;20027;-70
2022/05/20 11:05:22;;;;;;;4.47;2.00;;;;;;;29.55;25.99;100908.69;5110458;28;20023;-71
2022/05/20 11:08:12;;;;;;;5.53;1.92;;;;;;;29.58;25.68;100923.94;5109200;28;20394;-71
2022/05/20 11:10:57;;;;;;;4.90;1.65;;;;;;;29.55;26.58;100922.50;5109034;28;20031;-70
2022/05/20 11:13:41;;;;;;;4.55;1.65;;;;;;;29.58;26.38;100921.16;5109080;28;20107;-70
2022/05/20 11:16:18;;;;;;;4.30;1.65;;;;;;;29.60;26.08;100917.06;5108465;28;20023;-69
2022/05/20 11:19:08;;;;;;;3.60;1.83;;;;;;;29.65;26.29;100916.38;5108378;28;20028;-70
2022/05/20 11:21:52;;;;;;;4.45;2.03;;;;;;;29.70;26.32;100905.44;5108237;28;20432;-70
2022/05/20 11:24:18;;;;;;;5.40;2.00;;;;;;;29.74;26.34;100910.22;5107872;28;20031;-70
2022/05/20 11:27:20;;;;;;;2.63;1.50;;;;;;;29.76;26.47;100907.22;5107314;28;20434;-70
2022/05/20 11:30:18;;;;;;;2.60;1.67;;;;;;;29.75;26.24;100906.38;5107334;28;20031;-70
2022/05/20 11:32:58;;;;;;;1.55;1.30;;;;;;;29.76;25.86;100896.16;5107840;28;20392;-71
2022/05/20 11:35:59;;;;;;;5.47;1.85;;;;;;;29.77;26.13;100897.81;5089541;28;20031;-71
2022/05/20 11:38:35;;;;;;;1.98;1.40;;;;;;;29.80;26.47;100892.66;5075047;28;20498;-70
2022/05/20 11:41:25;;;;;;;4.13;1.85;;;;;;;29.83;26.45;100886.63;5089547;28;20036;-71
2022/05/20 11:44:02;;;;;;;5.03;2.00;;;;;;;29.87;26.61;100882.28;5108186;28;20023;-71
2022/05/20 11:46:30;;;;;;;3.05;1.73;;;;;;;29.93;26.62;100878.53;5107946;28;20036;-71
2022/05/20 11:49:06;;;;;;;5.80;1.70;;;;;;;29.98;26.30;100883.31;5108276;28;20481;-71
2022/05/20 11:52:11;;;;;;;2.70;1.70;;;;;;;29.95;26.45;100867.22;5107782;28;20023;-70
2022/05/20 11:55:13;;;;;;;11.82;1.83;;;;;;;30.00;26.45;100867.28;5107963;28;20524;-70
2022/05/20 11:57:48;;;;;;;3.85;1.55;;;;;;;30.06;26.09;100881.00;5107754;28;20027;-71
2022/05/20 12:00:19;;;;;;;4.70;1.70;;;;;;;30.02;26.07;100871.47;5107798;28;20024;-71
2022/05/20 12:03:04;;;;;;;2.70;1.52;;;;;;;29.99;26.29;100868.38;5107901;28;20028;-71
2022/05/20 12:05:35;;;;;;;4.03;1.70;;;;;;;29.98;26.64;100873.06;5107872;28;20035;-71
2022/05/20 12:08:01;;;;;;;6.55;1.90;;;;;;;29.93;25.96;100861.94;5089474;28;20035;-71
2022/05/20 12:10:47;;;;;;;3.63;1.60;;;;;;;29.92;26.11;100860.22;5108075;28;20019;-71
2022/05/20 12:13:26;;;;;;;3.33;1.60;;;;;;;29.84;26.37;100866.16;5089301;28;20031;-71
2022/05/20 12:16:14;;;;;;;3.72;1.90;;;;;;;29.79;26.36;100856.94;5089249;28;20055;-71